Terminal Aerodrome Forecast
Issued by NWS Duluth, MN

Home | Current Version | Previous Version | Text Only | Print | Product List | Glossary On
Versions: 1 2 3 4 5 6 7 8 9 10 11 12 13 14 15 16 17 18 19 20 21 22 23 24 25 26 27 28 29 30
000
FTUS43 KDLH 181700
TAFDLH
TAF
KDLH 181735Z 1818/1918 09012KT P6SM BKN016
     FM182000 12011KT P6SM SCT012
     FM190300 17011KT P6SM SCT100 BKN250 WS020/20040KT
     FM190900 19011G21KT P6SM BKN100
     FM191500 21015G25KT P6SM VCSH SCT015 BKN035=

USA.gov is the U.S. government's official web portal to all federal, state and local government web resources and services.